Time;durP1;ratioP1;P1;durP2;ratioP2;P2;SDS_P1;SDS_P2;PMS_P1;PMS_P2;Temp;Humidity;BMP_temperature;BMP_pressure;BME280_temperature;BME280_humidity;BME280_pressure;Samples;Min_cycle;Max_cycle;Signal;HPM_P1;HPM_P2
2022/06/17 00:01:43;;;;;;;0.90;0.90;;;19.40;99.90;;;;;;5050406;28;20299;-68
2022/06/17 00:04:10;;;;;;;1.02;1.02;;;19.40;99.90;;;;;;5061067;28;20215;-68
2022/06/17 00:06:41;;;;;;;0.90;0.90;;;19.40;99.90;;;;;;5058952;28;20211;-67
2022/06/17 00:09:13;;;;;;;0.93;0.93;;;19.30;99.90;;;;;;5055804;28;20562;-68
2022/06/17 00:11:41;;;;;;;0.90;0.90;;;19.30;99.90;;;;;;5053700;28;20685;-67
2022/06/17 00:14:14;;;;;;;1.10;1.00;;;19.30;99.90;;;;;;5054314;28;20208;-68
2022/06/17 00:16:41;;;;;;;0.90;0.90;;;19.20;99.90;;;;;;5052800;28;20230;-68
2022/06/17 00:19:08;;;;;;;0.90;0.90;;;19.20;99.90;;;;;;5053307;28;20636;-67
2022/06/17 00:21:38;;;;;;;0.80;0.80;;;19.20;99.90;;;;;;5053326;28;20256;-69
2022/06/17 00:24:17;;;;;;;0.90;0.90;;;19.20;99.90;;;;;;5054733;28;20574;-67
2022/06/17 00:26:45;;;;;;;1.00;1.00;;;19.20;99.90;;;;;;5049111;28;20246;-66
2022/06/17 00:29:13;;;;;;;0.95;0.95;;;19.10;99.90;;;;;;5043637;28;20216;-66
2022/06/17 00:31:41;;;;;;;1.00;1.00;;;19.00;99.90;;;;;;5044612;28;20228;-70
2022/06/17 00:34:08;;;;;;;0.80;0.80;;;19.10;99.90;;;;;;5042875;28;20283;-69
2022/06/17 00:36:36;;;;;;;1.30;0.95;;;19.00;99.90;;;;;;5045844;28;20291;-67
2022/06/17 00:39:04;;;;;;;1.00;1.00;;;19.00;99.90;;;;;;5043424;28;20288;-66
2022/06/17 00:41:35;;;;;;;1.05;1.05;;;18.90;99.90;;;;;;5043123;28;20219;-71
2022/06/17 00:44:15;;;;;;;0.90;0.90;;;18.90;99.90;;;;;;5049138;28;20196;-68
2022/06/17 00:46:49;;;;;;;0.80;0.80;;;19.00;99.90;;;;;;5037826;28;20228;-70
2022/06/17 00:49:21;;;;;;;0.90;0.90;;;19.00;99.90;;;;;;5040698;28;20255;-66
2022/06/17 00:51:57;;;;;;;1.20;1.10;;;18.90;99.90;;;;;;5043072;28;20315;-69
2022/06/17 00:54:27;;;;;;;0.95;0.95;;;18.90;99.90;;;;;;5048858;28;20290;-69
2022/06/17 00:56:56;;;;;;;0.82;0.82;;;18.90;99.90;;;;;;5043374;28;20286;-70
2022/06/17 00:59:25;;;;;;;1.08;0.98;;;18.90;99.90;;;;;;5043446;28;20232;-72
2022/06/17 01:01:59;;;;;;;0.80;0.80;;;18.90;99.90;;;;;;5058238;28;20768;-67
2022/06/17 01:04:29;;;;;;;0.90;0.90;;;18.70;99.90;;;;;;5057442;28;20632;-67
2022/06/17 01:07:04;;;;;;;0.90;0.90;;;18.60;99.90;;;;;;5051989;28;20666;-70
2022/06/17 01:12:23;;;;;;;0.90;0.90;;;18.50;99.90;;;;;;5052556;28;20230;-70
2022/06/17 01:14:50;;;;;;;1.00;1.00;;;18.50;99.90;;;;;;5053119;28;20286;-70
2022/06/17 01:17:19;;;;;;;0.80;0.80;;;18.50;99.90;;;;;;5059242;28;20330;-70
2022/06/17 01:19:48;;;;;;;0.82;0.82;;;18.40;99.90;;;;;;5058389;28;20680;-69
2022/06/17 01:22:23;;;;;;;0.60;0.60;;;18.40;99.90;;;;;;5069328;28;20230;-70
2022/06/17 01:24:54;;;;;;;0.90;0.90;;;18.40;99.90;;;;;;5059999;28;20234;-68
2022/06/17 01:27:25;;;;;;;0.80;0.80;;;18.30;99.90;;;;;;5056582;28;20231;-69
2022/06/17 01:29:53;;;;;;;0.60;0.60;;;18.30;99.90;;;;;;5052400;28;20644;-66
2022/06/17 01:32:24;;;;;;;0.90;0.90;;;18.30;99.90;;;;;;5055097;28;20220;-67
2022/06/17 01:34:51;;;;;;;1.17;0.90;;;18.30;99.90;;;;;;5054714;28;20242;-68
2022/06/17 01:37:19;;;;;;;0.75;0.75;;;18.40;99.90;;;;;;5056489;28;20745;-68
2022/06/17 01:39:46;;;;;;;0.80;0.80;;;18.50;99.90;;;;;;5053853;28;20223;-68
2022/06/17 01:42:15;;;;;;;0.90;0.90;;;18.50;99.90;;;;;;5052538;28;20663;-69
2022/06/17 01:44:43;;;;;;;0.90;0.90;;;18.50;99.90;;;;;;5053026;28;20294;-68
2022/06/17 01:47:17;;;;;;;0.95;0.95;;;18.40;99.90;;;;;;5052505;28;20251;-67
2022/06/17 01:49:48;;;;;;;0.70;0.70;;;18.40;99.90;;;;;;5058189;28;20286;-69
2022/06/17 01:52:20;;;;;;;0.75;0.75;;;18.50;99.90;;;;;;5055388;28;20297;-69
2022/06/17 01:54:53;;;;;;;0.90;0.90;;;18.50;99.90;;;;;;5049618;28;20208;-70
2022/06/17 01:57:26;;;;;;;0.88;0.88;;;18.50;99.90;;;;;;5056893;28;20232;-70
2022/06/17 01:59:57;;;;;;;0.90;0.90;;;18.70;99.90;;;;;;5055982;28;21495;-70
2022/06/17 02:02:24;;;;;;;0.70;0.70;;;18.60;99.90;;;;;;5054372;28;20381;-69
2022/06/17 02:04:57;;;;;;;0.77;0.77;;;18.70;99.90;;;;;;5057944;28;20208;-70
2022/06/17 02:07:29;;;;;;;0.70;0.70;;;18.70;99.90;;;;;;5061991;28;20662;-68
2022/06/17 02:09:56;;;;;;;0.90;0.90;;;18.70;99.90;;;;;;5056037;28;20282;-68
2022/06/17 02:12:27;;;;;;;0.70;0.70;;;18.80;99.90;;;;;;5055726;28;20769;-70
2022/06/17 02:14:54;;;;;;;0.85;0.85;;;18.80;99.90;;;;;;5054202;28;20196;-71
2022/06/17 02:17:25;;;;;;;0.73;0.73;;;18.80;99.90;;;;;;5054516;28;20320;-71
2022/06/17 02:19:52;;;;;;;0.80;0.80;;;18.70;99.90;;;;;;5055478;28;20254;-69
2022/06/17 02:22:24;;;;;;;1.10;1.00;;;18.70;99.90;;;;;;5055858;28;20255;-68
2022/06/17 02:24:53;;;;;;;0.80;0.80;;;18.70;99.90;;;;;;5056017;28;20210;-68
2022/06/17 02:27:20;;;;;;;0.70;0.70;;;18.60;99.90;;;;;;5054685;28;20641;-68
2022/06/17 02:29:50;;;;;;;0.90;0.90;;;18.50;99.90;;;;;;5054333;28;20278;-68
2022/06/17 02:32:18;;;;;;;0.85;0.85;;;18.50;99.90;;;;;;5054573;28;20315;-71
2022/06/17 02:34:52;;;;;;;0.90;0.90;;;18.50;99.90;;;;;;5054854;28;20299;-68
2022/06/17 02:37:20;;;;;;;0.80;0.80;;;18.40;99.90;;;;;;5054450;28;20639;-69
2022/06/17 02:39:50;;;;;;;0.80;0.80;;;18.40;99.90;;;;;;5055884;28;20646;-69
2022/06/17 02:42:20;;;;;;;1.07;1.07;;;18.40;99.90;;;;;;5055531;28;20239;-72
2022/06/17 02:44:52;;;;;;;0.70;0.70;;;18.40;99.90;;;;;;5056311;28;20295;-69
2022/06/17 02:47:19;;;;;;;0.80;0.80;;;18.50;99.90;;;;;;5056110;28;20232;-69
2022/06/17 02:49:47;;;;;;;0.88;0.88;;;18.50;99.90;;;;;;5055814;28;20295;-69
2022/06/17 02:52:17;;;;;;;1.40;0.95;;;18.60;99.90;;;;;;5055481;28;20341;-69
2022/06/17 02:54:48;;;;;;;0.95;0.95;;;18.50;99.90;;;;;;5065414;28;20267;-72
2022/06/17 02:57:22;;;;;;;0.80;0.80;;;18.50;99.90;;;;;;5066742;28;20212;-69
2022/06/17 02:59:53;;;;;;;1.05;0.98;;;18.40;99.90;;;;;;5063731;28;20228;-68
2022/06/17 03:02:23;;;;;;;0.80;0.80;;;18.40;99.90;;;;;;5057775;28;20289;-69
2022/06/17 03:04:50;;;;;;;0.82;0.82;;;18.40;99.90;;;;;;5055346;28;20630;-70
2022/06/17 03:07:20;;;;;;;0.80;0.80;;;18.40;99.90;;;;;;5054172;28;20283;-70
2022/06/17 03:09:47;;;;;;;1.05;0.98;;;18.40;99.90;;;;;;5055431;28;20721;-69
2022/06/17 03:12:18;;;;;;;0.80;0.80;;;18.30;99.90;;;;;;5062745;28;20242;-71
2022/06/17 03:14:50;;;;;;;1.00;1.00;;;18.20;99.90;;;;;;5062949;28;20208;-69
2022/06/17 03:17:23;;;;;;;0.90;0.90;;;18.20;99.90;;;;;;5062047;28;20208;-67
2022/06/17 03:19:50;;;;;;;0.80;0.80;;;18.10;99.90;;;;;;5064170;28;20207;-70
2022/06/17 03:22:17;;;;;;;0.80;0.77;;;18.00;99.90;;;;;;5063676;28;20259;-67
2022/06/17 03:24:50;;;;;;;0.80;0.80;;;18.10;99.90;;;;;;5060791;28;20261;-68
2022/06/17 03:27:20;;;;;;;0.80;0.80;;;18.00;99.90;;;;;;5055167;28;20283;-68
2022/06/17 03:29:50;;;;;;;0.90;0.90;;;18.00;99.90;;;;;;5055371;28;20218;-68
2022/06/17 03:32:24;;;;;;;0.80;0.80;;;18.00;99.90;;;;;;5055188;28;20227;-68
2022/06/17 03:34:54;;;;;;;0.70;0.70;;;18.00;99.90;;;;;;5054120;28;20565;-68
2022/06/17 03:37:25;;;;;;;0.80;0.80;;;18.10;99.90;;;;;;5054019;28;20204;-68
2022/06/17 03:39:55;;;;;;;0.80;0.80;;;18.10;99.90;;;;;;5054438;28;20675;-68
2022/06/17 03:42:27;;;;;;;0.70;0.70;;;18.20;99.90;;;;;;5054079;28;20259;-67
2022/06/17 03:45:00;;;;;;;0.88;0.88;;;18.20;99.90;;;;;;5054257;28;20224;-67
2022/06/17 03:47:38;;;;;;;0.80;0.80;;;18.30;99.90;;;;;;5046802;28;20266;-67
2022/06/17 03:50:08;;;;;;;0.80;0.80;;;18.30;99.90;;;;;;5054624;28;20234;-67
2022/06/17 03:52:41;;;;;;;0.70;0.70;;;18.50;99.90;;;;;;5054543;28;20295;-67
2022/06/17 03:55:13;;;;;;;0.80;0.80;;;18.50;99.90;;;;;;5053741;28;20736;-69
2022/06/17 03:57:42;;;;;;;0.77;0.77;;;18.60;99.90;;;;;;5054753;28;20206;-68
2022/06/17 04:00:17;;;;;;;0.60;0.60;;;18.60;99.90;;;;;;5053311;28;20315;-70
2022/06/17 04:02:45;;;;;;;0.70;0.70;;;18.80;99.90;;;;;;5054339;28;20265;-71
2022/06/17 04:05:15;;;;;;;0.90;0.90;;;18.90;99.90;;;;;;5053424;28;20208;-70
2022/06/17 04:07:42;;;;;;;0.82;0.82;;;19.00;99.90;;;;;;5054456;28;20239;-67
2022/06/17 04:10:13;;;;;;;0.80;0.80;;;19.10;99.90;;;;;;5053867;28;20235;-69
2022/06/17 04:12:40;;;;;;;0.75;0.75;;;19.00;99.90;;;;;;5053576;28;20693;-68
2022/06/17 04:15:14;;;;;;;0.68;0.68;;;19.00;99.90;;;;;;5053259;28;20212;-69
2022/06/17 04:17:43;;;;;;;0.68;0.68;;;19.00;99.90;;;;;;5053046;28;20291;-68
2022/06/17 04:20:27;;;;;;;0.80;0.80;;;18.90;99.90;;;;;;5052366;28;20230;-72
2022/06/17 04:22:57;;;;;;;0.73;0.73;;;19.00;99.90;;;;;;5052877;28;20210;-70
2022/06/17 04:25:30;;;;;;;0.90;0.90;;;18.90;99.90;;;;;;5052021;28;20688;-70
2022/06/17 04:28:01;;;;;;;0.73;0.73;;;18.90;99.90;;;;;;5051937;28;20206;-69
2022/06/17 04:30:35;;;;;;;0.80;0.80;;;18.90;99.90;;;;;;5044955;28;20220;-69
2022/06/17 04:33:06;;;;;;;0.80;0.80;;;18.90;99.90;;;;;;5052317;28;20211;-68
2022/06/17 04:35:36;;;;;;;0.80;0.80;;;18.90;99.90;;;;;;5052145;28;20279;-71
2022/06/17 04:38:03;;;;;;;0.80;0.80;;;19.00;99.90;;;;;;5053085;28;20204;-68
2022/06/17 04:40:36;;;;;;;0.90;0.90;;;18.90;99.90;;;;;;5057086;28;20306;-69
2022/06/17 04:43:12;;;;;;;0.98;0.98;;;19.00;99.90;;;;;;5058233;28;20208;-70
2022/06/17 04:45:39;;;;;;;0.90;0.90;;;19.00;99.90;;;;;;5060736;28;20200;-69
2022/06/17 04:48:08;;;;;;;0.90;0.90;;;19.00;99.90;;;;;;5058055;28;20254;-66
2022/06/17 04:50:37;;;;;;;0.88;0.88;;;19.00;99.90;;;;;;5053486;28;20227;-67
2022/06/17 04:53:04;;;;;;;0.98;0.98;;;19.00;99.90;;;;;;5059839;28;20290;-67
2022/06/17 04:55:34;;;;;;;1.20;1.20;;;19.00;99.90;;;;;;5052014;28;20250;-67
2022/06/17 04:58:02;;;;;;;0.85;0.85;;;19.00;99.90;;;;;;5060126;28;20639;-68
2022/06/17 05:00:30;;;;;;;0.90;0.90;;;19.10;99.90;;;;;;5057292;28;20233;-69
2022/06/17 05:02:57;;;;;;;1.40;1.30;;;19.10;99.90;;;;;;5058491;28;20270;-69
2022/06/17 05:05:29;;;;;;;1.10;1.00;;;19.20;99.90;;;;;;5056866;28;20234;-68
2022/06/17 05:07:58;;;;;;;1.00;1.00;;;19.20;99.90;;;;;;5056665;28;20199;-68
2022/06/17 05:10:29;;;;;;;0.80;0.80;;;19.30;99.90;;;;;;5056803;28;20781;-69
2022/06/17 05:13:01;;;;;;;0.80;0.80;;;19.50;99.90;;;;;;5055019;28;20235;-68
2022/06/17 05:15:28;;;;;;;0.90;0.90;;;19.70;99.90;;;;;;5055505;28;20287;-68
2022/06/17 05:17:56;;;;;;;0.80;0.80;;;19.80;99.90;;;;;;5053259;28;20200;-68
2022/06/17 05:20:24;;;;;;;1.58;0.90;;;19.90;99.90;;;;;;5056314;28;20224;-69
2022/06/17 05:22:55;;;;;;;1.17;1.10;;;20.20;99.90;;;;;;5056820;28;20230;-69
2022/06/17 05:25:25;;;;;;;0.88;0.88;;;20.40;99.90;;;;;;5051706;28;20307;-68
2022/06/17 05:27:52;;;;;;;1.00;1.00;;;20.50;99.90;;;;;;5052336;28;20283;-67
2022/06/17 05:30:19;;;;;;;1.00;0.95;;;20.70;99.90;;;;;;5050042;28;20231;-66
2022/06/17 05:32:48;;;;;;;1.00;1.00;;;20.80;99.90;;;;;;5051942;28;20291;-68
2022/06/17 05:35:15;;;;;;;0.90;0.90;;;21.00;99.90;;;;;;5051404;28;20290;-68
2022/06/17 05:37:42;;;;;;;1.05;1.02;;;21.10;99.90;;;;;;5051791;28;20204;-69
2022/06/17 05:40:11;;;;;;;0.90;0.90;;;21.20;99.90;;;;;;5054653;28;20234;-69
2022/06/17 05:42:42;;;;;;;0.80;0.80;;;21.40;99.90;;;;;;5055571;28;20649;-70
2022/06/17 05:45:11;;;;;;;4.72;1.20;;;21.40;99.90;;;;;;5053160;28;20204;-68
2022/06/17 05:47:38;;;;;;;0.98;0.98;;;21.60;99.90;;;;;;5056457;28;20207;-68
2022/06/17 05:50:06;;;;;;;0.90;0.90;;;21.70;99.90;;;;;;5055973;28;20282;-67
2022/06/17 05:52:33;;;;;;;1.55;1.20;;;21.90;99.90;;;;;;5056508;28;20267;-69
2022/06/17 05:55:01;;;;;;;0.90;0.90;;;22.00;99.90;;;;;;5055256;28;20254;-69
2022/06/17 05:57:28;;;;;;;1.08;1.08;;;22.20;99.90;;;;;;5055347;28;20256;-69
2022/06/17 05:59:56;;;;;;;0.90;0.90;;;22.20;99.90;;;;;;5056329;28;20352;-69
2022/06/17 06:02:23;;;;;;;1.00;1.00;;;22.40;99.90;;;;;;5059684;28;20680;-68
2022/06/17 06:04:50;;;;;;;0.90;0.90;;;22.60;99.90;;;;;;5057880;28;20204;-67
2022/06/17 06:07:17;;;;;;;1.00;1.00;;;22.60;99.90;;;;;;5055162;28;20196;-68
2022/06/17 06:09:44;;;;;;;1.67;0.93;;;22.70;99.90;;;;;;5055186;28;20751;-68
2022/06/17 06:12:11;;;;;;;0.90;0.90;;;22.70;99.90;;;;;;5054989;28;20302;-67
2022/06/17 06:14:38;;;;;;;1.23;1.02;;;22.70;99.90;;;;;;5054934;28;20297;-69
2022/06/17 06:17:06;;;;;;;1.20;1.20;;;22.70;99.90;;;;;;5053639;28;20318;-69
2022/06/17 06:19:33;;;;;;;1.10;1.10;;;22.80;99.90;;;;;;5054953;28;20301;-68
2022/06/17 06:22:00;;;;;;;0.90;0.90;;;22.80;99.90;;;;;;5054743;28;20590;-66
2022/06/17 06:24:27;;;;;;;1.08;0.98;;;22.90;99.90;;;;;;5054934;28;20668;-68
2022/06/17 06:26:54;;;;;;;0.90;0.90;;;22.90;99.90;;;;;;5058311;28;20200;-66
2022/06/17 06:29:21;;;;;;;1.00;1.00;;;23.00;99.90;;;;;;5055932;28;20203;-69
2022/06/17 06:31:49;;;;;;;1.00;1.00;;;23.00;99.90;;;;;;5060641;28;20496;-67
2022/06/17 06:34:20;;;;;;;1.00;1.00;;;23.00;99.90;;;;;;5055406;28;20203;-67
2022/06/17 06:36:47;;;;;;;1.00;1.00;;;23.10;99.90;;;;;;5053269;28;20196;-68
2022/06/17 06:39:14;;;;;;;0.95;0.90;;;23.20;99.90;;;;;;5054377;28;20720;-69
2022/06/17 06:41:40;;;;;;;1.15;1.05;;;23.30;99.90;;;;;;5054821;28;20277;-68
2022/06/17 06:44:07;;;;;;;1.10;1.10;;;23.50;99.90;;;;;;5054921;28;20204;-68
2022/06/17 06:46:35;;;;;;;1.30;1.20;;;23.60;99.90;;;;;;5056249;28;20263;-67
2022/06/17 06:49:01;;;;;;;1.10;1.10;;;23.70;99.90;;;;;;5063655;28;20290;-69
2022/06/17 06:51:30;;;;;;;0.90;0.90;;;23.80;99.90;;;;;;5061810;28;20287;-69
2022/06/17 06:53:57;;;;;;;1.00;1.00;;;23.90;99.90;;;;;;5063125;28;20207;-68
2022/06/17 06:56:24;;;;;;;1.38;1.38;;;24.00;99.90;;;;;;5056964;28;20290;-68
2022/06/17 06:58:50;;;;;;;1.30;1.20;;;24.10;99.90;;;;;;5055249;28;20227;-68
2022/06/17 07:01:17;;;;;;;1.00;1.00;;;24.20;99.90;;;;;;5053727;28;20712;-68
2022/06/17 07:03:44;;;;;;;1.00;1.00;;;24.20;99.90;;;;;;5053956;28;20299;-68
2022/06/17 07:06:13;;;;;;;1.00;1.00;;;24.40;99.90;;;;;;5052338;28;20207;-68
2022/06/17 07:08:41;;;;;;;0.90;0.90;;;24.60;99.90;;;;;;5054966;28;20254;-68
2022/06/17 07:11:09;;;;;;;1.00;1.00;;;24.50;99.90;;;;;;5054900;28;20228;-68
2022/06/17 07:13:37;;;;;;;0.90;0.90;;;24.60;99.90;;;;;;5063576;28;20264;-69
2022/06/17 07:16:06;;;;;;;0.88;0.88;;;24.80;99.90;;;;;;5059994;28;20678;-67
2022/06/17 07:18:35;;;;;;;0.77;0.77;;;24.80;99.90;;;;;;5056739;28;20256;-68
2022/06/17 07:21:04;;;;;;;1.27;1.20;;;24.80;99.90;;;;;;5059290;28;20228;-68
2022/06/17 07:23:34;;;;;;;0.93;0.93;;;24.80;99.90;;;;;;5048364;28;20207;-69
2022/06/17 07:26:06;;;;;;;0.85;0.85;;;24.70;99.90;;;;;;5053788;28;20207;-69
2022/06/17 07:28:33;;;;;;;1.67;0.93;;;24.60;99.90;;;;;;5053516;28;20196;-70
2022/06/17 07:31:00;;;;;;;1.00;1.00;;;24.60;99.90;;;;;;5052932;28;20220;-67
2022/06/17 07:33:30;;;;;;;1.13;1.10;;;24.60;99.90;;;;;;5053815;28;20291;-67
2022/06/17 07:36:01;;;;;;;0.80;0.80;;;24.60;99.90;;;;;;5053670;28;20635;-69
2022/06/17 07:41:19;;;;;;;1.20;1.20;;;24.40;99.90;;;;;;5056692;28;20239;-68
2022/06/17 07:43:46;;;;;;;1.23;1.10;;;24.40;99.90;;;;;;5054567;28;20585;-68
2022/06/17 07:46:12;;;;;;;1.50;1.10;;;24.50;99.90;;;;;;5054571;28;20204;-68
2022/06/17 07:48:40;;;;;;;0.95;0.95;;;24.50;99.90;;;;;;5052316;28;20670;-69
2022/06/17 07:51:07;;;;;;;1.20;1.17;;;24.60;99.90;;;;;;5055712;28;20310;-69
2022/06/17 07:53:35;;;;;;;1.08;1.00;;;24.80;99.90;;;;;;5061086;28;20203;-69
2022/06/17 07:56:04;;;;;;;1.10;1.10;;;24.80;99.90;;;;;;5055975;28;20246;-69
2022/06/17 07:58:33;;;;;;;1.17;1.10;;;24.90;99.90;;;;;;5058723;28;20204;-70
2022/06/17 08:01:00;;;;;;;1.17;1.08;;;25.00;99.90;;;;;;5063872;28;20258;-69
2022/06/17 08:03:26;;;;;;;1.30;1.10;;;25.10;99.90;;;;;;5055128;28;20231;-70
2022/06/17 08:05:57;;;;;;;0.95;0.95;;;25.20;99.90;;;;;;5063398;28;20295;-68
2022/06/17 08:08:25;;;;;;;1.05;1.00;;;25.20;99.90;;;;;;5054705;28;20200;-69
2022/06/17 08:10:54;;;;;;;1.02;1.02;;;25.30;99.90;;;;;;5058538;28;20215;-69
2022/06/17 08:13:21;;;;;;;1.13;1.02;;;25.30;99.90;;;;;;5054328;28;20279;-70
2022/06/17 08:15:52;;;;;;;0.95;0.95;;;25.30;99.90;;;;;;5059263;28;20590;-69
2022/06/17 08:18:19;;;;;;;1.00;1.00;;;25.20;99.90;;;;;;5050869;28;20299;-68
2022/06/17 08:20:46;;;;;;;1.13;1.02;;;25.30;99.90;;;;;;5052509;28;20234;-68
2022/06/17 08:23:14;;;;;;;0.90;0.90;;;25.40;99.90;;;;;;5052485;28;20204;-69
2022/06/17 08:25:42;;;;;;;0.90;0.90;;;25.40;99.90;;;;;;5052205;28;20571;-69
2022/06/17 08:28:12;;;;;;;1.10;1.10;;;25.50;99.90;;;;;;5052180;28;20203;-68
2022/06/17 08:30:41;;;;;;;1.38;0.93;;;25.70;99.90;;;;;;5051834;28;20255;-69
2022/06/17 08:33:10;;;;;;;2.33;1.05;;;25.80;99.90;;;;;;5051890;28;20204;-69
2022/06/17 08:35:41;;;;;;;2.10;1.10;;;25.90;99.90;;;;;;5052006;28;20243;-69
2022/06/17 08:38:13;;;;;;;1.23;1.13;;;25.90;99.90;;;;;;5057608;28;20303;-69
2022/06/17 08:40:51;;;;;;;1.40;1.30;;;25.70;99.90;;;;;;5064615;28;20610;-69
2022/06/17 08:43:38;;;;;;;1.00;1.00;;;25.70;99.90;;;;;;5059423;28;20262;-69
2022/06/17 08:46:13;;;;;;;0.80;0.80;;;25.80;99.90;;;;;;5050676;28;20702;-69
2022/06/17 08:48:57;;;;;;;0.95;0.95;;;25.90;99.90;;;;;;5056500;28;20200;-70
2022/06/17 08:51:39;;;;;;;1.33;1.23;;;26.00;99.90;;;;;;5053512;28;20243;-69
2022/06/17 08:54:18;;;;;;;0.98;0.98;;;25.90;99.90;;;;;;5052839;28;20294;-69
2022/06/17 08:56:56;;;;;;;1.45;1.25;;;26.00;99.90;;;;;;5053682;28;20288;-69
2022/06/17 08:59:38;;;;;;;1.00;1.00;;;26.00;99.90;;;;;;5056953;28;20206;-69
2022/06/17 09:02:19;;;;;;;1.00;1.00;;;26.10;99.90;;;;;;5056714;28;20230;-69
2022/06/17 09:04:59;;;;;;;1.10;1.10;;;26.20;99.90;;;;;;5059279;28;20707;-67
2022/06/17 09:07:39;;;;;;;1.45;1.10;;;26.40;99.90;;;;;;5051925;28;20211;-70
2022/06/17 09:10:20;;;;;;;1.50;1.25;;;26.60;99.90;;;;;;5051339;28;20278;-67
2022/06/17 09:13:00;;;;;;;1.00;1.00;;;26.80;99.90;;;;;;5052333;28;20283;-69
2022/06/17 09:15:35;;;;;;;1.77;1.00;;;26.90;99.90;;;;;;5052090;28;20386;-68
2022/06/17 09:18:09;;;;;;;1.08;1.00;;;27.10;99.90;;;;;;5050624;28;20203;-69
2022/06/17 09:20:39;;;;;;;0.90;0.90;;;27.10;99.90;;;;;;5054114;28;20223;-68
2022/06/17 09:23:06;;;;;;;1.20;1.20;;;27.10;99.90;;;;;;5051384;28;20206;-67
2022/06/17 09:25:39;;;;;;;1.00;1.00;;;27.00;99.90;;;;;;5051748;28;20210;-68
2022/06/17 09:28:10;;;;;;;1.05;1.00;;;27.10;99.90;;;;;;5049134;28;20200;-68
2022/06/17 09:30:44;;;;;;;1.77;1.02;;;27.00;99.90;;;;;;5049741;28;20230;-68
2022/06/17 09:33:15;;;;;;;1.00;1.00;;;27.00;99.90;;;;;;5051315;28;20584;-69
2022/06/17 09:35:49;;;;;;;1.67;1.17;;;27.10;99.90;;;;;;5051074;28;20283;-67
2022/06/17 09:38:21;;;;;;;1.10;1.10;;;27.20;99.90;;;;;;5051110;28;20204;-69
2022/06/17 09:40:54;;;;;;;1.05;1.05;;;27.40;99.90;;;;;;5051138;28;20231;-69
2022/06/17 09:43:25;;;;;;;1.55;1.10;;;27.60;99.90;;;;;;5051196;28;20234;-70
2022/06/17 09:45:55;;;;;;;1.25;1.20;;;27.70;99.90;;;;;;5050696;28;20287;-70
2022/06/17 09:48:27;;;;;;;1.00;1.00;;;27.80;99.90;;;;;;5051179;28;20223;-70
2022/06/17 09:50:58;;;;;;;1.05;1.05;;;27.80;99.90;;;;;;5051516;28;20567;-70
2022/06/17 09:53:30;;;;;;;1.08;0.95;;;27.70;99.90;;;;;;5051158;28;20238;-69
2022/06/17 09:56:03;;;;;;;1.80;1.02;;;27.70;99.90;;;;;;5051031;28;20230;-69
2022/06/17 09:58:37;;;;;;;1.20;1.10;;;27.70;99.90;;;;;;5052123;28;20201;-68
2022/06/17 10:01:05;;;;;;;1.65;1.05;;;27.80;99.90;;;;;;5055447;28;20224;-68
2022/06/17 10:03:35;;;;;;;1.13;1.00;;;28.00;99.90;;;;;;5061485;28;20204;-67
2022/06/17 10:06:27;;;;;;;1.13;1.02;;;28.00;99.90;;;;;;5052833;28;20739;-68
2022/06/17 10:09:03;;;;;;;1.30;1.20;;;27.80;99.90;;;;;;5051156;28;20236;-69
2022/06/17 10:11:37;;;;;;;1.00;1.00;;;27.90;99.90;;;;;;5058024;22;20227;-63
2022/06/17 10:14:23;;;;;;;0.80;0.80;;;28.10;99.90;;;;;;5051684;28;20238;-62
2022/06/17 10:19:53;;;;;;;1.00;1.00;;;28.10;99.90;;;;;;5048866;28;20214;-61
2022/06/17 10:22:41;;;;;;;0.90;0.90;;;28.20;99.90;;;;;;5052365;28;20262;-62
2022/06/17 10:25:22;;;;;;;0.82;0.82;;;28.40;99.90;;;;;;5052812;28;20210;-61
2022/06/17 10:28:02;;;;;;;0.90;0.90;;;28.50;99.90;;;;;;5054575;28;20290;-62
2022/06/17 10:30:40;;;;;;;0.80;0.80;;;28.70;99.90;;;;;;5045802;28;20216;-62
2022/06/17 10:33:10;;;;;;;0.95;0.90;;;28.70;99.90;;;;;;5055060;28;20206;-63
2022/06/17 10:35:40;;;;;;;0.95;0.88;;;28.70;99.90;;;;;;5055082;28;20290;-62
2022/06/17 10:38:12;;;;;;;0.73;0.73;;;28.60;99.90;;;;;;5055685;28;20299;-61
2022/06/17 10:40:41;;;;;;;1.38;0.90;;;28.70;99.90;;;;;;5054746;28;20228;-62
2022/06/17 10:43:14;;;;;;;0.70;0.70;;;28.80;99.90;;;;;;5054932;28;20646;-62
2022/06/17 10:45:41;;;;;;;0.75;0.75;;;28.90;99.90;;;;;;5053811;28;20816;-62
2022/06/17 10:48:15;;;;;;;0.70;0.70;;;28.90;99.90;;;;;;5054081;28;20204;-63
2022/06/17 10:50:42;;;;;;;0.90;0.90;;;29.00;99.90;;;;;;5053195;28;20302;-63
2022/06/17 10:53:16;;;;;;;0.98;0.98;;;28.90;99.90;;;;;;5053522;28;20314;-63
2022/06/17 10:55:46;;;;;;;0.80;0.80;;;28.90;99.90;;;;;;5050065;28;20685;-61
2022/06/17 10:58:17;;;;;;;1.05;1.00;;;28.90;99.90;;;;;;5047515;28;20737;-61
2022/06/17 11:00:54;;;;;;;0.80;0.80;;;29.10;99.90;;;;;;5054184;28;20258;-62
2022/06/17 11:03:28;;;;;;;0.80;0.80;;;29.20;99.90;;;;;;5048154;28;20565;-62
2022/06/17 11:06:13;;;;;;;1.08;0.98;;;29.40;99.90;;;;;;5053533;28;20204;-61
2022/06/17 11:08:53;;;;;;;0.70;0.70;;;29.30;99.20;;;;;;5051266;28;20644;-61
2022/06/17 11:14:20;;;;;;;0.77;0.77;;;29.10;98.70;;;;;;5050724;28;20214;-63
2022/06/17 11:16:47;;;;;;;0.70;0.70;;;29.10;97.20;;;;;;5052912;28;20196;-62
2022/06/17 11:19:17;;;;;;;1.10;1.10;;;29.20;97.20;;;;;;5054848;28;20231;-61
2022/06/17 11:21:46;;;;;;;1.00;1.00;;;29.20;96.10;;;;;;5055608;28;20228;-62
2022/06/17 11:24:22;;;;;;;1.00;1.00;;;29.20;96.60;;;;;;5050287;28;20212;-61
2022/06/17 11:27:06;;;;;;;0.70;0.70;;;29.20;97.40;;;;;;5051918;28;20206;-62
2022/06/17 11:29:40;;;;;;;0.90;0.90;;;29.30;97.00;;;;;;5048053;28;20195;-63
2022/06/17 11:32:23;;;;;;;1.08;0.70;;;29.40;95.00;;;;;;5052504;28;20594;-62
2022/06/17 11:34:54;;;;;;;0.90;0.90;;;29.40;94.90;;;;;;5052897;28;20200;-62
2022/06/17 11:37:25;;;;;;;0.75;0.75;;;29.60;95.20;;;;;;5043604;28;20204;-62
2022/06/17 11:40:09;;;;;;;0.70;0.70;;;29.60;93.50;;;;;;5052359;28;20196;-62
2022/06/17 11:42:46;;;;;;;0.80;0.80;;;29.40;93.20;;;;;;5049333;28;20751;-62
2022/06/17 11:45:17;;;;;;;0.60;0.60;;;29.60;94.50;;;;;;5052310;28;20282;-62
2022/06/17 11:47:49;;;;;;;0.85;0.82;;;29.70;95.00;;;;;;5051461;28;20203;-62
2022/06/17 11:50:21;;;;;;;0.80;0.80;;;29.80;95.70;;;;;;5045616;28;20240;-62
2022/06/17 11:52:49;;;;;;;0.80;0.80;;;29.80;96.10;;;;;;5050829;28;20199;-62
2022/06/17 11:55:18;;;;;;;0.75;0.75;;;30.00;95.40;;;;;;5044673;28;20666;-62
2022/06/17 11:57:45;;;;;;;0.73;0.73;;;30.10;95.90;;;;;;5052797;28;20273;-61
2022/06/17 12:00:24;;;;;;;0.73;0.73;;;30.10;96.00;;;;;;5045608;28;20231;-62
2022/06/17 12:02:57;;;;;;;0.77;0.77;;;30.20;96.30;;;;;;5046212;28;20211;-62
2022/06/17 12:05:26;;;;;;;0.70;0.70;;;30.40;95.30;;;;;;5047661;28;20200;-62
2022/06/17 12:07:59;;;;;;;0.90;0.90;;;30.40;94.40;;;;;;5052190;28;20207;-62
2022/06/17 12:10:40;;;;;;;0.70;0.70;;;30.10;95.00;;;;;;5052705;28;20234;-63
2022/06/17 12:13:15;;;;;;;0.80;0.80;;;30.00;95.60;;;;;;5053233;28;20204;-62
2022/06/17 12:15:46;;;;;;;0.98;0.88;;;30.00;95.20;;;;;;5050227;28;20218;-62
2022/06/17 12:18:19;;;;;;;1.08;0.98;;;30.10;95.90;;;;;;5046762;28;20213;-62
2022/06/17 12:20:55;;;;;;;1.08;0.80;;;30.00;95.70;;;;;;5053594;28;20231;-62
2022/06/17 12:23:32;;;;;;;1.67;1.00;;;30.00;95.10;;;;;;5052591;28;20298;-62
2022/06/17 12:26:04;;;;;;;1.15;1.05;;;29.90;96.10;;;;;;5052246;28;20650;-60
2022/06/17 12:28:40;;;;;;;0.80;0.80;;;30.10;96.10;;;;;;5051194;28;20200;-61
2022/06/17 12:31:14;;;;;;;0.70;0.70;;;30.00;96.10;;;;;;5051251;28;20307;-62
2022/06/17 12:33:44;;;;;;;0.70;0.70;;;30.10;96.40;;;;;;5049979;28;20199;-62
2022/06/17 12:36:19;;;;;;;0.80;0.80;;;30.20;96.20;;;;;;5047010;28;20287;-62
2022/06/17 12:38:51;;;;;;;0.70;0.70;;;30.40;96.80;;;;;;5052282;28;20208;-61
2022/06/17 12:41:27;;;;;;;2.38;0.80;;;30.60;96.80;;;;;;5051968;28;20338;-63
2022/06/17 12:44:09;;;;;;;0.80;0.80;;;30.70;97.10;;;;;;5052029;28;20576;-62
2022/06/17 12:46:46;;;;;;;1.00;0.90;;;30.60;97.20;;;;;;5043606;28;20258;-63
2022/06/17 12:55:10;;;;;;;0.82;0.82;;;30.50;97.30;;;;;;5051364;28;20215;-63
2022/06/17 12:57:48;;;;;;;0.88;0.88;;;30.60;97.20;;;;;;5051925;28;20207;-63
2022/06/17 13:00:19;;;;;;;0.90;0.90;;;30.60;97.40;;;;;;5049996;28;20314;-62
2022/06/17 13:03:07;;;;;;;0.85;0.85;;;30.70;97.70;;;;;;5051661;28;20235;-62
2022/06/17 13:05:38;;;;;;;0.80;0.80;;;30.50;97.30;;;;;;5043915;28;20204;-62
2022/06/17 13:08:16;;;;;;;0.80;0.80;;;30.40;97.30;;;;;;5051301;28;20690;-62
2022/06/17 13:10:53;;;;;;;0.70;0.70;;;30.50;98.10;;;;;;5051430;28;20298;-63
2022/06/17 13:13:41;;;;;;;0.90;0.90;;;30.60;98.00;;;;;;5045817;28;20559;-62
2022/06/17 13:16:12;;;;;;;1.55;1.00;;;30.90;97.80;;;;;;5051032;28;20218;-62
2022/06/17 13:18:47;;;;;;;0.80;0.80;;;30.90;97.40;;;;;;5051414;28;20724;-62
2022/06/17 13:21:22;;;;;;;0.82;0.82;;;30.90;97.20;;;;;;5052581;28;20231;-61
2022/06/17 13:23:55;;;;;;;1.10;0.90;;;31.10;97.10;;;;;;5064239;28;20227;-62
2022/06/17 13:26:25;;;;;;;1.45;0.95;;;30.90;96.80;;;;;;5058892;28;20204;-62